CES5942 ZPPP-ZPZT
Flight info
| Callsign | CES5942 |
|---|---|
| Flight time | N/A |
| Altitude | 18700 |
| Route | DADOL |
| Aircraft | B737/M-SDE2E3FGHIRWXY/LB1 |
Departure
| Time | 2026-05-04 10:45 |
|---|---|
| Airport | Kunming Changshui International Airport (ZPPP) |
Arrival
| Time | N/A |
|---|---|
| Airport | ZPZT |
| Time | Latitude | Longitude | Altitude | Speed | Heading |
|---|---|---|---|---|---|
| 2026-05-04 10:10 | 25.11257 | 102.93752 | 6896 ft | 0 kts | 221° |
| 2026-05-04 10:32 | 25.11288 | 102.93783 | 6896 ft | 2 kts | 223° |
| 2026-05-04 10:33 | 25.11300 | 102.93795 | 6896 ft | 2 kts | 224° |
| 2026-05-04 10:33 | 25.11312 | 102.93808 | 6896 ft | 2 kts | 226° |
| 2026-05-04 10:33 | 25.11323 | 102.93822 | 6896 ft | 2 kts | 233° |
| 2026-05-04 10:33 | 25.11330 | 102.93838 | 6896 ft | 2 kts | 293° |
| 2026-05-04 10:34 | 25.11328 | 102.93843 | 6896 ft | 0 kts | 310° |
| 2026-05-04 10:37 | 25.11333 | 102.93835 | 6896 ft | 5 kts | 309° |
| 2026-05-04 10:39 | 25.11680 | 102.93536 | 6899 ft | 13 kts | 308° |
| 2026-05-04 10:39 | 25.11733 | 102.93461 | 6900 ft | 12 kts | 308° |
| 2026-05-04 10:39 | 25.11767 | 102.93412 | 6900 ft | 12 kts | 308° |
| 2026-05-04 10:40 | 25.11861 | 102.93367 | 6900 ft | 12 kts | 19° |
| 2026-05-04 10:40 | 25.11924 | 102.93418 | 6899 ft | 11 kts | 38° |
| 2026-05-04 10:40 | 25.11966 | 102.93454 | 6899 ft | 11 kts | 38° |
| 2026-05-04 10:40 | 25.12045 | 102.93521 | 6899 ft | 11 kts | 38° |
| 2026-05-04 10:41 | 25.12084 | 102.93555 | 6899 ft | 10 kts | 38° |
| 2026-05-04 10:41 | 25.12159 | 102.93618 | 6898 ft | 10 kts | 38° |
| 2026-05-04 10:41 | 25.12195 | 102.93650 | 6898 ft | 10 kts | 38° |
| 2026-05-04 10:41 | 25.12254 | 102.93702 | 6898 ft | 12 kts | 38° |
| 2026-05-04 10:42 | 25.12323 | 102.93762 | 6898 ft | 14 kts | 38° |
| 2026-05-04 10:42 | 25.12402 | 102.93830 | 6897 ft | 15 kts | 38° |
| 2026-05-04 10:42 | 25.12489 | 102.93906 | 6897 ft | 16 kts | 41° |
| 2026-05-04 10:42 | 25.12588 | 102.93993 | 6896 ft | 19 kts | 38° |
| 2026-05-04 10:43 | 25.12690 | 102.94081 | 6896 ft | 18 kts | 38° |
| 2026-05-04 10:44 | 25.11683 | 102.92959 | 6912 ft | 157 kts | 220° |
| 2026-05-04 10:45 | 25.10795 | 102.92128 | 7332 ft | 173 kts | 221° |
| 2026-05-04 10:45 | 25.09949 | 102.91088 | 7915 ft | 194 kts | 232° |
| 2026-05-04 10:45 | 25.09077 | 102.89838 | 8402 ft | 205 kts | 233° |
| 2026-05-04 10:45 | 25.08231 | 102.88586 | 9134 ft | 210 kts | 233° |
| 2026-05-04 10:46 | 25.07307 | 102.87212 | 9342 ft | 237 kts | 233° |
| 2026-05-04 10:46 | 25.06276 | 102.85674 | 9597 ft | 261 kts | 233° |
| 2026-05-04 10:46 | 25.05174 | 102.84024 | 10231 ft | 272 kts | 233° |
| 2026-05-04 10:46 | 25.04063 | 102.82367 | 11251 ft | 262 kts | 234° |
| 2026-05-04 10:47 | 25.02969 | 102.80778 | 12262 ft | 260 kts | 233° |
| 2026-05-04 10:47 | 25.01844 | 102.79188 | 13049 ft | 266 kts | 233° |
| 2026-05-04 10:47 | 25.00697 | 102.77585 | 13936 ft | 267 kts | 233° |
| 2026-05-04 10:47 | 24.99512 | 102.75935 | 14409 ft | 284 kts | 236° |
| 2026-05-04 10:49 | 25.09619 | 102.69904 | 18754 ft | 378 kts | 14° |
| 2026-05-04 10:49 | 25.12101 | 102.70984 | 18917 ft | 386 kts | 17° |
| 2026-05-04 10:50 | 25.14577 | 102.72159 | 18956 ft | 387 kts | 18° |
| 2026-05-04 10:51 | 25.31952 | 102.79784 | 18982 ft | 382 kts | 15° |
| 2026-05-04 10:52 | 25.34454 | 102.80822 | 18971 ft | 384 kts | 15° |
| 2026-05-04 10:52 | 25.36960 | 102.81863 | 18946 ft | 386 kts | 15° |
| 2026-05-04 10:52 | 25.39476 | 102.82907 | 18956 ft | 386 kts | 15° |
| 2026-05-04 10:54 | 25.57004 | 102.90217 | 18928 ft | 385 kts | 15° |
| 2026-05-04 10:54 | 25.59513 | 102.91264 | 18925 ft | 385 kts | 15° |
| 2026-05-04 10:56 | 25.77065 | 102.98608 | 18927 ft | 385 kts | 15° |
| 2026-05-04 10:56 | 25.79598 | 102.99667 | 18938 ft | 397 kts | 16° |
| 2026-05-04 10:56 | 25.82244 | 103.00770 | 18924 ft | 411 kts | 16° |
| 2026-05-04 10:57 | 25.84937 | 103.01898 | 18930 ft | 415 kts | 16° |
| 2026-05-04 10:57 | 25.87640 | 103.03035 | 18914 ft | 414 kts | 16° |
| 2026-05-04 10:57 | 25.90321 | 103.04166 | 18914 ft | 411 kts | 16° |
| 2026-05-04 10:57 | 25.92962 | 103.05279 | 18917 ft | 410 kts | 16° |
| 2026-05-04 10:58 | 25.95621 | 103.06400 | 18887 ft | 408 kts | 16° |
| 2026-05-04 10:58 | 25.98268 | 103.07513 | 18917 ft | 406 kts | 17° |
| 2026-05-04 10:58 | 26.00920 | 103.08627 | 18893 ft | 406 kts | 17° |
| 2026-05-04 10:58 | 26.03561 | 103.09741 | 18906 ft | 405 kts | 17° |
| 2026-05-04 10:59 | 26.06210 | 103.10857 | 18909 ft | 407 kts | 17° |
| 2026-05-04 10:59 | 26.08864 | 103.11974 | 18887 ft | 409 kts | 17° |
| 2026-05-04 10:59 | 26.11526 | 103.13095 | 18901 ft | 409 kts | 17° |
| 2026-05-04 10:59 | 26.14188 | 103.14218 | 18879 ft | 409 kts | 17° |
| 2026-05-04 11:00 | 26.16845 | 103.15338 | 18904 ft | 409 kts | 17° |
| 2026-05-04 11:01 | 26.35455 | 103.23212 | 18872 ft | 405 kts | 17° |
| 2026-05-04 11:02 | 26.38055 | 103.24313 | 18852 ft | 404 kts | 17° |
| 2026-05-04 11:02 | 26.40682 | 103.25427 | 18858 ft | 403 kts | 17° |
| 2026-05-04 11:05 | 26.74381 | 103.43006 | 16641 ft | 353 kts | 24° |
| 2026-05-04 11:06 | 26.76634 | 103.44169 | 16630 ft | 356 kts | 20° |
| 2026-05-04 11:06 | 26.78913 | 103.45254 | 16618 ft | 355 kts | 20° |
| 2026-05-04 11:06 | 26.81177 | 103.46356 | 16633 ft | 354 kts | 22° |
| 2026-05-04 11:06 | 26.83414 | 103.47542 | 16609 ft | 355 kts | 23° |
| 2026-05-04 11:08 | 26.97457 | 103.55134 | 16612 ft | 311 kts | 22° |
| 2026-05-04 11:10 | 27.03767 | 103.67291 | 16591 ft | 317 kts | 135° |
| 2026-05-04 11:12 | 26.90811 | 103.65102 | 16589 ft | 290 kts | 210° |
| 2026-05-04 11:12 | 26.89028 | 103.64060 | 16588 ft | 288 kts | 215° |
| 2026-05-04 11:12 | 26.87587 | 103.62564 | 16614 ft | 280 kts | 238° |
| 2026-05-04 11:12 | 26.86764 | 103.60599 | 16604 ft | 280 kts | 257° |
| 2026-05-04 11:13 | 26.86561 | 103.58439 | 16607 ft | 281 kts | 274° |
| 2026-05-04 11:13 | 26.87006 | 103.56308 | 16616 ft | 285 kts | 293° |
| 2026-05-04 11:13 | 26.88108 | 103.54455 | 16602 ft | 288 kts | 313° |
| 2026-05-04 11:13 | 26.89755 | 103.53159 | 16312 ft | 293 kts | 334° |
| 2026-05-04 11:14 | 26.91740 | 103.52664 | 16017 ft | 294 kts | 355° |
| 2026-05-04 11:14 | 26.93762 | 103.52925 | 15730 ft | 294 kts | 14° |
| 2026-05-04 11:14 | 26.95604 | 103.53908 | 15454 ft | 293 kts | 28° |
| 2026-05-04 11:16 | 27.07761 | 103.61888 | 12572 ft | 285 kts | 30° |
| 2026-05-04 11:16 | 27.09473 | 103.62999 | 12059 ft | 282 kts | 30° |
| 2026-05-04 11:16 | 27.11166 | 103.64098 | 11554 ft | 279 kts | 30° |
| 2026-05-04 11:17 | 27.12842 | 103.65182 | 11082 ft | 277 kts | 28° |
| 2026-05-04 11:17 | 27.14651 | 103.65857 | 10567 ft | 276 kts | 5° |
| 2026-05-04 11:19 | 27.25009 | 103.68017 | 9947 ft | 212 kts | 53° |
| 2026-05-04 11:19 | 27.25988 | 103.69215 | 9699 ft | 199 kts | 41° |
| 2026-05-04 11:19 | 27.26981 | 103.70192 | 9810 ft | 186 kts | 41° |
| 2026-05-04 11:19 | 27.27913 | 103.71156 | 9667 ft | 177 kts | 43° |
| 2026-05-04 11:20 | 27.28863 | 103.71993 | 9370 ft | 173 kts | 26° |
| 2026-05-04 11:20 | 27.30020 | 103.72288 | 9065 ft | 167 kts | 356° |
| 2026-05-04 11:20 | 27.31067 | 103.71885 | 9115 ft | 163 kts | 324° |
| 2026-05-04 11:20 | 27.31798 | 103.70902 | 9203 ft | 168 kts | 297° |
| 2026-05-04 11:22 | 27.27603 | 103.68440 | 8259 ft | 153 kts | 87° |
| 2026-05-04 11:22 | 27.27768 | 103.69587 | 8286 ft | 151 kts | 70° |
| 2026-05-04 11:23 | 27.28171 | 103.70662 | 8026 ft | 149 kts | 64° |
| 2026-05-04 11:23 | 27.28721 | 103.71590 | 7677 ft | 138 kts | 55° |
| 2026-05-04 11:24 | 27.32859 | 103.75734 | 6340 ft | 97 kts | 41° |
| 2026-05-04 11:25 | 27.33275 | 103.76146 | 6350 ft | 57 kts | 41° |
| 2026-05-04 11:25 | 27.33503 | 103.76371 | 6358 ft | 26 kts | 41° |
| 2026-05-04 11:25 | 27.33607 | 103.76459 | 6356 ft | 9 kts | 22° |
| 2026-05-04 11:26 | 27.33593 | 103.76511 | 6359 ft | 8 kts | 217° |
| 2026-05-04 11:27 | 27.32847 | 103.75723 | 6339 ft | 26 kts | 222° |
| 2026-05-04 11:28 | 27.32716 | 103.75593 | 6336 ft | 24 kts | 221° |
| 2026-05-04 11:28 | 27.32626 | 103.75484 | 6333 ft | 16 kts | 259° |
| 2026-05-04 11:28 | 27.32669 | 103.75389 | 6332 ft | 9 kts | 311° |
| 2026-05-04 11:28 | 27.32676 | 103.75325 | 6330 ft | 9 kts | 230° |
| 2026-05-04 11:29 | 27.32679 | 103.75281 | 6329 ft | 5 kts | 323° |
| 2026-05-04 11:29 | 27.32686 | 103.75272 | 6330 ft | 0 kts | 311° |